Time;durP1;ratioP1;P1;durP2;ratioP2;P2;SDS_P1;SDS_P2;PMS_P1;PMS_P2;Temp;Humidity;BMP_temperature;BMP_pressure;BME280_temperature;BME280_humidity;BME280_pressure;Samples;Min_cycle;Max_cycle;Signal;HPM_P1;HPM_P2
2022/12/05 00:01:38;;;;;;;0.40;0.40;;;14.40;85.80;;;;;;5095237;28;20200;-64
2022/12/05 00:04:26;;;;;;;0.40;0.40;;;14.30;85.80;;;;;;5094141;28;20196;-64
2022/12/05 00:07:14;;;;;;;0.40;0.40;;;14.30;85.80;;;;;;5093909;28;20216;-65
2022/12/05 00:10:03;;;;;;;0.40;0.40;;;14.30;85.90;;;;;;5092606;28;20218;-65
2022/12/05 00:12:51;;;;;;;0.40;0.40;;;14.30;86.30;;;;;;5095340;28;20794;-64
2022/12/05 00:15:41;;;;;;;0.50;0.50;;;14.20;86.00;;;;;;5094291;28;20196;-63
2022/12/05 00:18:29;;;;;;;1.47;1.47;;;14.20;86.00;;;;;;5094944;28;20298;-65
2022/12/05 00:21:20;;;;;;;0.40;0.40;;;14.20;86.10;;;;;;5094188;28;20557;-64
2022/12/05 00:24:12;;;;;;;0.40;0.40;;;14.20;86.10;;;;;;5093757;28;20206;-65
2022/12/05 00:27:00;;;;;;;0.77;0.77;;;14.10;86.20;;;;;;5094973;28;20703;-65
2022/12/05 00:29:48;;;;;;;0.40;0.40;;;14.20;86.40;;;;;;5094152;28;20232;-64
2022/12/05 00:32:37;;;;;;;0.40;0.40;;;14.20;86.50;;;;;;5094842;28;20582;-65
2022/12/05 00:35:26;;;;;;;4.32;4.13;;;14.20;86.50;;;;;;5093381;28;20207;-64
2022/12/05 00:38:14;;;;;;;0.40;0.40;;;14.20;86.50;;;;;;5093740;28;20311;-66
2022/12/05 00:41:03;;;;;;;1.45;1.40;;;14.20;86.40;;;;;;5093782;28;20212;-64
2022/12/05 00:43:52;;;;;;;0.40;0.40;;;14.30;86.50;;;;;;5094345;28;20206;-64
2022/12/05 00:46:40;;;;;;;0.47;0.47;;;14.30;86.50;;;;;;5094529;28;20216;-65
2022/12/05 00:49:30;;;;;;;0.50;0.50;;;14.30;86.30;;;;;;5093328;28;20302;-65
2022/12/05 00:52:18;;;;;;;3.08;2.88;;;14.30;86.20;;;;;;5094089;28;20191;-64
2022/12/05 00:55:06;;;;;;;0.40;0.40;;;14.30;86.10;;;;;;5093591;28;20206;-64
2022/12/05 00:57:54;;;;;;;0.40;0.40;;;14.30;85.80;;;;;;5107889;28;20187;-65
2022/12/05 01:00:43;;;;;;;0.40;0.40;;;14.40;86.20;;;;;;5113976;28;20281;-63
2022/12/05 01:03:31;;;;;;;0.40;0.40;;;14.30;86.10;;;;;;5114360;28;20286;-64
2022/12/05 01:06:22;;;;;;;0.80;0.80;;;14.30;86.10;;;;;;5113462;28;20679;-63
2022/12/05 01:09:12;;;;;;;0.40;0.40;;;14.30;86.20;;;;;;5112675;28;20626;-64
2022/12/05 01:12:00;;;;;;;0.68;0.68;;;14.30;86.30;;;;;;5115197;28;20317;-66
2022/12/05 01:14:48;;;;;;;0.40;0.40;;;14.30;86.30;;;;;;5114212;28;20201;-63
2022/12/05 01:17:37;;;;;;;0.40;0.40;;;14.30;86.30;;;;;;5114388;28;20201;-63
2022/12/05 01:20:25;;;;;;;0.40;0.40;;;14.30;86.30;;;;;;5113531;28;20231;-64
2022/12/05 01:23:14;;;;;;;0.40;0.40;;;14.20;86.20;;;;;;5114375;28;20195;-64
2022/12/05 01:26:06;;;;;;;0.40;0.40;;;14.20;86.40;;;;;;5114285;28;20199;-65
2022/12/05 01:28:55;;;;;;;0.40;0.40;;;14.20;86.40;;;;;;5113730;28;20215;-65
2022/12/05 01:31:43;;;;;;;2.67;2.58;;;14.20;86.40;;;;;;5113585;28;20204;-63
2022/12/05 01:34:31;;;;;;;1.90;1.90;;;14.20;86.40;;;;;;5113959;28;20225;-65
2022/12/05 01:37:19;;;;;;;0.40;0.40;;;14.20;86.60;;;;;;5111979;28;20282;-64
2022/12/05 01:40:11;;;;;;;0.40;0.40;;;14.10;86.60;;;;;;5112913;28;20209;-64
2022/12/05 01:42:59;;;;;;;0.40;0.40;;;14.10;86.60;;;;;;5113420;28;20667;-67
2022/12/05 01:45:47;;;;;;;0.40;0.40;;;14.10;86.70;;;;;;5114317;28;20207;-64
2022/12/05 01:48:36;;;;;;;0.40;0.40;;;14.20;87.00;;;;;;5113310;28;20741;-64
2022/12/05 01:51:24;;;;;;;0.40;0.40;;;14.20;87.00;;;;;;5112379;28;20195;-63
2022/12/05 01:54:14;;;;;;;0.40;0.40;;;14.20;87.10;;;;;;5112826;28;20203;-64
2022/12/05 01:57:08;;;;;;;0.60;0.60;;;14.20;87.10;;;;;;5105827;28;20210;-63
2022/12/05 02:00:00;;;;;;;0.40;0.40;;;14.30;87.20;;;;;;5092934;28;20220;-63
2022/12/05 02:02:53;;;;;;;0.40;0.40;;;14.30;87.20;;;;;;5093614;28;20196;-63
2022/12/05 02:05:42;;;;;;;0.40;0.40;;;14.40;87.10;;;;;;5093527;28;20215;-64
2022/12/05 02:08:30;;;;;;;2.70;2.60;;;14.40;86.70;;;;;;5093066;28;20224;-67
2022/12/05 02:11:18;;;;;;;0.43;0.43;;;14.40;86.60;;;;;;5093571;28;20672;-64
2022/12/05 02:14:20;;;;;;;3.70;2.97;;;14.50;86.60;;;;;;5093029;28;20204;-63
2022/12/05 02:17:17;;;;;;;1.47;1.47;;;14.50;86.40;;;;;;5108093;28;20199;-64
2022/12/05 02:20:27;;;;;;;1.98;1.88;;;14.40;86.20;;;;;;5113336;28;20199;-64
2022/12/05 02:23:38;;;;;;;0.40;0.40;;;14.50;86.20;;;;;;5111524;28;20202;-62
2022/12/05 02:26:54;;;;;;;0.40;0.40;;;14.50;86.20;;;;;;5113418;28;20223;-63
2022/12/05 02:30:11;;;;;;;0.40;0.40;;;14.50;86.20;;;;;;5111654;28;20465;-63
2022/12/05 02:33:08;;;;;;;0.40;0.40;;;14.50;86.20;;;;;;5085825;28;20227;-63
2022/12/05 02:36:03;;;;;;;0.40;0.40;;;14.50;86.30;;;;;;5112597;28;20248;-64
2022/12/05 02:38:58;;;;;;;0.40;0.40;;;14.50;86.40;;;;;;5113779;28;20742;-65
2022/12/05 02:41:52;;;;;;;0.43;0.43;;;14.40;86.30;;;;;;5112391;28;20199;-63
2022/12/05 02:44:45;;;;;;;0.40;0.40;;;14.40;86.40;;;;;;5112754;28;20203;-67
2022/12/05 02:47:38;;;;;;;0.40;0.40;;;;;;;;;;5113060;28;20270;-63
2022/12/05 02:50:31;;;;;;;0.40;0.40;;;14.30;85.80;;;;;;5115396;28;20287;-65
2022/12/05 02:53:22;;;;;;;0.40;0.40;;;14.30;86.50;;;;;;5116864;28;20203;-63
2022/12/05 02:56:11;;;;;;;0.50;0.50;;;14.30;86.50;;;;;;5116076;28;20198;-63
2022/12/05 02:59:01;;;;;;;0.40;0.40;;;14.30;86.60;;;;;;5095974;28;20223;-64
2022/12/05 03:01:49;;;;;;;0.40;0.40;;;14.20;86.70;;;;;;5097067;28;20196;-63
2022/12/05 03:04:38;;;;;;;0.40;0.40;;;14.20;86.70;;;;;;5096312;28;20203;-63
2022/12/05 03:07:31;;;;;;;0.68;0.68;;;14.20;86.80;;;;;;5095556;28;20602;-63
2022/12/05 03:10:22;;;;;;;0.40;0.40;;;14.20;86.90;;;;;;5095457;28;20207;-64
2022/12/05 03:13:15;;;;;;;0.50;0.50;;;14.20;87.00;;;;;;5096148;28;20263;-65
2022/12/05 03:16:08;;;;;;;0.40;0.40;;;14.20;87.20;;;;;;5095911;28;20760;-64
2022/12/05 03:19:00;;;;;;;0.40;0.40;;;14.20;87.20;;;;;;5096589;28;20707;-63
2022/12/05 03:21:54;;;;;;;0.40;0.40;;;14.30;87.40;;;;;;5096798;28;20668;-63
2022/12/05 03:24:43;;;;;;;0.40;0.40;;;14.30;87.20;;;;;;5096391;28;20279;-63
2022/12/05 03:27:41;;;;;;;0.40;0.40;;;14.40;87.30;;;;;;5096142;28;20212;-63
2022/12/05 03:30:32;;;;;;;1.10;1.10;;;14.40;87.10;;;;;;5095180;28;20287;-63
2022/12/05 03:33:23;;;;;;;1.52;1.48;;;14.40;87.10;;;;;;5095874;28;20206;-63
2022/12/05 03:36:16;;;;;;;0.50;0.50;;;14.50;87.10;;;;;;5096215;28;20206;-63
2022/12/05 03:39:11;;;;;;;0.40;0.40;;;14.50;86.80;;;;;;5095604;28;20611;-63
2022/12/05 03:42:09;;;;;;;0.40;0.40;;;14.50;86.70;;;;;;5095906;28;20279;-63
2022/12/05 03:45:01;;;;;;;0.40;0.40;;;14.50;86.60;;;;;;5095229;28;20737;-64
2022/12/05 03:47:55;;;;;;;0.40;0.40;;;14.50;86.10;;;;;;5095945;28;20249;-62
2022/12/05 03:50:46;;;;;;;0.40;0.40;;;14.50;86.40;;;;;;5095100;28;20210;-63
2022/12/05 03:53:40;;;;;;;0.40;0.40;;;14.60;86.50;;;;;;5095635;28;20207;-63
2022/12/05 03:56:36;;;;;;;0.40;0.40;;;14.50;86.40;;;;;;5096533;28;20287;-64
2022/12/05 03:59:32;;;;;;;0.40;0.40;;;14.50;86.40;;;;;;5094435;28;20208;-64
2022/12/05 04:02:26;;;;;;;0.40;0.40;;;14.50;86.50;;;;;;5095659;28;20204;-62
2022/12/05 04:05:19;;;;;;;0.40;0.40;;;14.50;86.50;;;;;;5095488;28;20283;-63
2022/12/05 04:08:14;;;;;;;0.40;0.40;;;14.50;86.60;;;;;;5095588;28;20302;-62
2022/12/05 04:11:04;;;;;;;0.40;0.40;;;14.40;86.40;;;;;;5095532;28;20196;-65
2022/12/05 04:13:57;;;;;;;0.40;0.40;;;14.40;86.60;;;;;;5095511;28;20242;-65
2022/12/05 04:17:03;;;;;;;0.50;0.50;;;14.40;86.70;;;;;;5095756;28;20238;-64
2022/12/05 04:23:03;;;;;;;0.40;0.40;;;14.30;86.70;;;;;;5077671;28;20280;-62
2022/12/05 04:26:02;;;;;;;1.33;1.33;;;14.30;86.80;;;;;;5095500;28;20290;-64
2022/12/05 04:28:56;;;;;;;0.40;0.40;;;14.30;86.80;;;;;;5093084;28;20602;-64
2022/12/05 04:31:50;;;;;;;1.20;1.10;;;14.20;86.90;;;;;;5113501;28;20328;-64
2022/12/05 04:34:39;;;;;;;0.40;0.40;;;14.20;87.00;;;;;;5114954;28;20282;-64
2022/12/05 04:37:32;;;;;;;0.40;0.40;;;14.30;87.10;;;;;;5114484;28;20680;-65
2022/12/05 04:40:24;;;;;;;0.40;0.40;;;14.20;87.10;;;;;;5113846;28;20200;-65
2022/12/05 04:43:14;;;;;;;1.70;1.63;;;14.20;87.20;;;;;;5114452;28;20274;-64
2022/12/05 04:46:06;;;;;;;0.60;0.60;;;14.30;87.40;;;;;;5114745;28;20274;-64
2022/12/05 04:49:00;;;;;;;0.65;0.65;;;14.30;87.40;;;;;;5113809;28;20219;-64
2022/12/05 04:51:51;;;;;;;0.40;0.40;;;14.40;87.50;;;;;;5114105;28;20282;-63
2022/12/05 04:54:43;;;;;;;1.10;1.10;;;14.30;87.30;;;;;;5114847;28;20223;-64
2022/12/05 04:57:36;;;;;;;0.40;0.40;;;14.30;87.20;;;;;;5103082;28;20200;-64
2022/12/05 05:00:25;;;;;;;0.50;0.50;;;14.40;87.10;;;;;;5094517;28;20300;-64
2022/12/05 05:03:19;;;;;;;0.40;0.40;;;14.40;86.90;;;;;;5094208;28;20207;-64
2022/12/05 05:06:11;;;;;;;0.50;0.50;;;14.40;86.90;;;;;;5094553;28;20196;-65
2022/12/05 05:08:59;;;;;;;0.40;0.40;;;14.50;86.90;;;;;;5094970;28;20263;-63
2022/12/05 05:11:48;;;;;;;0.40;0.40;;;14.50;86.80;;;;;;5094106;28;20275;-68
2022/12/05 05:14:36;;;;;;;0.50;0.50;;;14.50;86.80;;;;;;5094296;28;20192;-63
2022/12/05 05:17:24;;;;;;;4.83;4.53;;;14.50;86.80;;;;;;5094210;28;20259;-63
2022/12/05 05:20:25;;;;;;;0.50;0.50;;;14.40;86.60;;;;;;5094441;28;20326;-63
2022/12/05 05:23:15;;;;;;;0.40;0.40;;;14.50;86.80;;;;;;5094213;28;20333;-64
2022/12/05 05:26:03;;;;;;;0.50;0.50;;;14.50;86.90;;;;;;5094533;28;20223;-63
2022/12/05 05:28:51;;;;;;;0.40;0.40;;;14.40;86.70;;;;;;5094129;28;20279;-64
2022/12/05 05:31:40;;;;;;;0.40;0.40;;;14.40;86.90;;;;;;5093923;28;20282;-64
2022/12/05 05:34:28;;;;;;;0.50;0.50;;;14.40;86.90;;;;;;5093684;28;20226;-63
2022/12/05 05:37:16;;;;;;;0.40;0.40;;;14.40;86.80;;;;;;5093263;28;20628;-65
2022/12/05 05:40:08;;;;;;;0.40;0.40;;;14.40;86.90;;;;;;5093768;28;20202;-65
2022/12/05 05:42:58;;;;;;;0.40;0.40;;;14.30;86.90;;;;;;5093901;28;20199;-65
2022/12/05 05:45:46;;;;;;;0.40;0.40;;;14.30;86.90;;;;;;5094243;28;20265;-64
2022/12/05 05:48:34;;;;;;;1.37;1.27;;;14.30;87.10;;;;;;5093536;28;20273;-64
2022/12/05 05:51:24;;;;;;;0.40;0.40;;;14.30;87.10;;;;;;5093702;28;20283;-65
2022/12/05 05:54:12;;;;;;;0.40;0.40;;;14.30;87.20;;;;;;5094313;28;20200;-63
2022/12/05 05:57:02;;;;;;;0.40;0.40;;;14.20;87.20;;;;;;5101236;28;20264;-64
2022/12/05 05:59:50;;;;;;;0.40;0.40;;;14.10;87.30;;;;;;5114040;28;20270;-64
2022/12/05 06:02:38;;;;;;;0.40;0.40;;;14.20;87.60;;;;;;5112835;28;20686;-64
2022/12/05 06:05:26;;;;;;;0.40;0.40;;;14.30;87.60;;;;;;5113854;28;20336;-68
2022/12/05 06:08:14;;;;;;;0.40;0.40;;;14.40;87.50;;;;;;5113915;28;20223;-65
2022/12/05 06:11:05;;;;;;;0.40;0.40;;;14.50;87.30;;;;;;5113802;28;20206;-64
2022/12/05 06:13:56;;;;;;;0.40;0.40;;;14.60;87.10;;;;;;5113835;28;20226;-64
2022/12/05 06:16:44;;;;;;;0.40;0.40;;;14.70;87.00;;;;;;5113923;28;20300;-63
2022/12/05 06:19:32;;;;;;;0.40;0.40;;;14.80;86.80;;;;;;5113040;28;20215;-64
2022/12/05 06:22:20;;;;;;;0.50;0.50;;;14.90;86.80;;;;;;5114684;28;20388;-63
2022/12/05 06:25:09;;;;;;;0.40;0.40;;;14.90;86.70;;;;;;5116424;28;20278;-65
2022/12/05 06:27:57;;;;;;;0.40;0.40;;;14.90;86.60;;;;;;5116427;28;20200;-65
2022/12/05 06:30:47;;;;;;;0.40;0.40;;;15.00;86.60;;;;;;5116020;28;20776;-64
2022/12/05 06:33:35;;;;;;;0.47;0.47;;;15.00;86.50;;;;;;5116289;28;20199;-64
2022/12/05 06:36:24;;;;;;;0.40;0.40;;;15.00;86.40;;;;;;5116436;28;20273;-65
2022/12/05 06:39:12;;;;;;;0.40;0.40;;;15.00;86.20;;;;;;5117121;28;20348;-63
2022/12/05 06:42:01;;;;;;;0.40;0.40;;;15.00;86.10;;;;;;5117124;28;20303;-65
2022/12/05 06:44:49;;;;;;;0.40;0.40;;;14.90;85.90;;;;;;5117058;28;20670;-64
2022/12/05 06:47:38;;;;;;;0.40;0.40;;;15.00;86.20;;;;;;5117881;28;20200;-64
2022/12/05 06:50:26;;;;;;;0.40;0.40;;;14.90;86.00;;;;;;5116543;28;21057;-64
2022/12/05 06:53:14;;;;;;;0.40;0.40;;;14.90;86.10;;;;;;5118186;28;20748;-65
2022/12/05 06:56:06;;;;;;;0.40;0.40;;;14.90;86.10;;;;;;5115956;28;20274;-63
2022/12/05 06:58:55;;;;;;;0.40;0.40;;;14.90;86.20;;;;;;5095766;28;20219;-64
2022/12/05 07:01:45;;;;;;;0.40;0.40;;;14.80;86.10;;;;;;5096417;28;20633;-63
2022/12/05 07:04:35;;;;;;;0.40;0.40;;;14.80;86.30;;;;;;5096356;28;20206;-64
2022/12/05 07:07:23;;;;;;;0.40;0.40;;;14.80;86.40;;;;;;5096192;28;20200;-64
2022/12/05 07:10:11;;;;;;;0.40;0.40;;;14.70;86.40;;;;;;5095835;28;20302;-65
2022/12/05 07:12:59;;;;;;;0.63;0.63;;;14.70;86.50;;;;;;5095362;28;20231;-64
2022/12/05 07:15:48;;;;;;;1.08;1.08;;;14.60;86.50;;;;;;5096263;28;20239;-63
2022/12/05 07:18:37;;;;;;;0.40;0.40;;;14.60;86.70;;;;;;5095085;28;20826;-64
2022/12/05 07:21:26;;;;;;;0.40;0.40;;;14.50;86.60;;;;;;5094340;28;20216;-65
2022/12/05 07:24:14;;;;;;;0.40;0.40;;;14.50;86.60;;;;;;5095582;28;20279;-65
2022/12/05 07:27:03;;;;;;;0.40;0.40;;;14.50;86.60;;;;;;5096707;28;20204;-64
2022/12/05 07:29:51;;;;;;;0.40;0.40;;;14.50;86.70;;;;;;5106520;27;20302;-64
2022/12/05 07:32:39;;;;;;;0.60;0.60;;;14.50;86.90;;;;;;5100157;28;20283;-64
2022/12/05 07:35:27;;;;;;;0.40;0.40;;;14.50;86.90;;;;;;5093807;28;20196;-65
2022/12/05 07:38:16;;;;;;;0.40;0.40;;;14.40;86.90;;;;;;5094226;28;20282;-63
2022/12/05 07:41:05;;;;;;;0.40;0.40;;;14.50;87.10;;;;;;5095157;28;20196;-64
2022/12/05 07:44:00;;;;;;;0.88;0.88;;;14.40;87.10;;;;;;5094443;28;20203;-63
2022/12/05 07:46:48;;;;;;;0.40;0.40;;;14.40;87.10;;;;;;5094877;28;20208;-64
2022/12/05 07:49:36;;;;;;;0.40;0.40;;;14.40;87.20;;;;;;5093566;28;20675;-64
2022/12/05 07:52:24;;;;;;;0.40;0.40;;;14.40;87.30;;;;;;5095107;28;20752;-62
2022/12/05 07:55:14;;;;;;;0.40;0.40;;;14.40;87.40;;;;;;5107259;28;20196;-63
2022/12/05 07:58:02;;;;;;;0.40;0.40;;;14.40;87.50;;;;;;5114821;28;20294;-64
2022/12/05 08:00:50;;;;;;;0.40;0.40;;;14.40;87.60;;;;;;5114318;28;20188;-63
2022/12/05 08:03:39;;;;;;;0.40;0.40;;;14.40;87.60;;;;;;5114799;28;20214;-64
2022/12/05 08:06:29;;;;;;;0.40;0.40;;;14.40;87.60;;;;;;5115086;28;20622;-64
2022/12/05 08:09:17;;;;;;;0.50;0.50;;;14.40;87.70;;;;;;5114040;28;20644;-64
2022/12/05 08:12:07;;;;;;;0.40;0.40;;;14.40;87.70;;;;;;5114554;28;20204;-63
2022/12/05 08:14:55;;;;;;;0.40;0.40;;;14.40;87.60;;;;;;5115795;28;20225;-65
2022/12/05 08:17:43;;;;;;;0.40;0.40;;;14.50;87.70;;;;;;5115802;28;20646;-64
2022/12/05 08:20:31;;;;;;;0.40;0.40;;;14.50;87.70;;;;;;5111338;28;20279;-64
2022/12/05 08:23:19;;;;;;;0.40;0.40;;;14.50;87.70;;;;;;5094038;28;20329;-63
2022/12/05 08:26:10;;;;;;;0.40;0.40;;;14.50;87.70;;;;;;5094286;28;20196;-64
2022/12/05 08:29:02;;;;;;;0.40;0.40;;;14.40;87.70;;;;;;5095132;28;20232;-65
2022/12/05 08:31:51;;;;;;;0.40;0.40;;;14.50;87.80;;;;;;5093807;28;20283;-64
2022/12/05 08:34:39;;;;;;;0.40;0.40;;;14.50;87.90;;;;;;5094528;28;20329;-64
2022/12/05 08:37:27;;;;;;;1.33;1.27;;;14.50;87.90;;;;;;5094451;28;20226;-62
2022/12/05 08:40:16;;;;;;;0.60;0.60;;;14.40;87.70;;;;;;5091950;28;20196;-64
2022/12/05 08:43:04;;;;;;;0.40;0.40;;;14.40;87.80;;;;;;5093223;28;20334;-63
2022/12/05 08:45:53;;;;;;;1.52;1.52;;;14.40;87.90;;;;;;5096221;28;20199;-63
2022/12/05 08:48:41;;;;;;;0.40;0.40;;;14.40;87.90;;;;;;5107859;28;20238;-63
2022/12/05 08:51:29;;;;;;;0.40;0.40;;;14.40;87.90;;;;;;5105434;28;20775;-64
2022/12/05 08:54:17;;;;;;;0.40;0.40;;;14.40;88.00;;;;;;5109473;28;20285;-64
2022/12/05 08:57:06;;;;;;;0.40;0.40;;;14.50;89.10;;;;;;5093083;28;20285;-63
2022/12/05 08:59:54;;;;;;;0.50;0.50;;;14.70;88.90;;;;;;5100923;28;20246;-62
2022/12/05 09:02:44;;;;;;;1.67;1.58;;;15.10;88.80;;;;;;5106024;28;20208;-62
2022/12/05 09:05:32;;;;;;;0.47;0.47;;;15.50;88.30;;;;;;5093107;28;20206;-63
2022/12/05 09:08:20;;;;;;;1.77;1.42;;;15.70;87.90;;;;;;5091973;28;20252;-63
2022/12/05 09:11:10;;;;;;;0.40;0.40;;;16.00;87.60;;;;;;5092030;28;20232;-63
2022/12/05 09:14:00;;;;;;;0.40;0.40;;;16.30;87.20;;;;;;5092806;28;20206;-62
2022/12/05 09:16:48;;;;;;;0.88;0.88;;;16.50;86.70;;;;;;5092023;28;20196;-62
2022/12/05 09:19:37;;;;;;;0.40;0.40;;;16.80;86.20;;;;;;5092932;28;20692;-63
2022/12/05 09:22:25;;;;;;;0.40;0.40;;;17.10;85.80;;;;;;5093016;28;20207;-63
2022/12/05 09:25:14;;;;;;;3.47;2.50;;;17.40;85.50;;;;;;5097186;28;20567;-61
2022/12/05 09:28:02;;;;;;;0.60;0.60;;;17.60;85.00;;;;;;5096229;28;20252;-62
2022/12/05 09:30:56;;;;;;;0.40;0.40;;;17.80;84.60;;;;;;5092534;28;20565;-63
2022/12/05 09:33:45;;;;;;;0.60;0.60;;;17.90;84.20;;;;;;5112207;28;20683;-64
2022/12/05 09:36:35;;;;;;;0.93;0.93;;;18.10;84.10;;;;;;5100887;28;20212;-63
2022/12/05 09:39:24;;;;;;;0.40;0.40;;;18.10;83.70;;;;;;5062249;28;979349;-64
2022/12/05 09:42:35;;;;;;;0.50;0.50;;;18.20;83.40;;;;;;5102070;28;20711;-63
2022/12/05 09:45:28;;;;;;;0.40;0.40;;;18.40;83.20;;;;;;5103049;28;20215;-64
2022/12/05 09:48:20;;;;;;;0.60;0.60;;;18.50;82.80;;;;;;5105933;28;20776;-66
2022/12/05 09:51:12;;;;;;;0.40;0.40;;;18.60;82.70;;;;;;5107835;28;20315;-65
2022/12/05 09:54:03;;;;;;;0.40;0.40;;;18.70;82.60;;;;;;5105529;28;20192;-66
2022/12/05 09:56:51;;;;;;;0.40;0.40;;;18.80;82.50;;;;;;5100445;28;20204;-66
2022/12/05 09:59:40;;;;;;;0.40;0.40;;;18.90;82.30;;;;;;5106741;28;20726;-67
2022/12/05 10:02:39;;;;;;;0.43;0.43;;;19.00;82.00;;;;;;5102285;28;20698;-65
2022/12/05 10:05:32;;;;;;;1.30;1.25;;;19.10;81.80;;;;;;5109907;28;20668;-66
2022/12/05 10:08:25;;;;;;;1.55;1.15;;;19.20;81.90;;;;;;5105813;28;20211;-67
2022/12/05 10:11:20;;;;;;;0.40;0.40;;;19.30;81.70;;;;;;5106910;28;20679;-68
2022/12/05 10:14:15;;;;;;;1.73;1.67;;;19.40;81.30;;;;;;5105763;28;20328;-67
2022/12/05 10:17:10;;;;;;;1.75;1.23;;;19.50;81.20;;;;;;5097140;28;20223;-68
2022/12/05 10:20:02;;;;;;;1.58;1.58;;;19.50;81.00;;;;;;5094834;28;20298;-66
2022/12/05 10:22:54;;;;;;;0.40;0.40;;;19.60;81.10;;;;;;5102847;28;20196;-66
2022/12/05 10:25:43;;;;;;;1.05;1.05;;;19.60;80.80;;;;;;5094929;28;20744;-68
2022/12/05 10:28:38;;;;;;;0.40;0.40;;;19.60;80.70;;;;;;5106971;28;20238;-68
2022/12/05 10:31:30;;;;;;;1.77;1.67;;;19.60;80.80;;;;;;5115544;28;20219;-65
2022/12/05 10:34:28;;;;;;;0.40;0.40;;;19.60;80.80;;;;;;5108160;28;20203;-68
2022/12/05 10:37:19;;;;;;;0.40;0.40;;;19.70;80.70;;;;;;5104561;28;20285;-67
2022/12/05 10:40:12;;;;;;;1.45;1.35;;;19.80;80.60;;;;;;5105190;28;20337;-68
2022/12/05 10:43:00;;;;;;;0.95;0.75;;;19.80;80.40;;;;;;5097270;28;20221;-63
2022/12/05 10:45:49;;;;;;;0.40;0.40;;;19.90;80.30;;;;;;5103239;28;20222;-69
2022/12/05 10:48:39;;;;;;;1.40;1.30;;;20.00;80.20;;;;;;5115155;22;20230;-64
2022/12/05 10:51:28;;;;;;;0.40;0.40;;;20.00;80.00;;;;;;5093959;28;20224;-64
2022/12/05 10:54:35;;;;;;;0.40;0.40;;;20.10;79.90;;;;;;5098021;28;20786;-64
2022/12/05 10:57:26;;;;;;;0.50;0.50;;;20.10;79.80;;;;;;5093635;28;20269;-64
2022/12/05 11:00:19;;;;;;;0.50;0.50;;;20.20;79.80;;;;;;5103228;28;20235;-64
2022/12/05 11:03:23;;;;;;;0.50;0.50;;;20.20;79.60;;;;;;5105818;28;20215;-64
2022/12/05 11:06:17;;;;;;;1.10;1.10;;;20.30;79.60;;;;;;5096795;28;20200;-64
2022/12/05 11:09:14;;;;;;;4.45;4.13;;;20.30;79.50;;;;;;5093600;28;20362;-64
2022/12/05 11:12:17;;;;;;;0.73;0.73;;;20.40;79.60;;;;;;5104636;28;20286;-64
2022/12/05 11:15:23;;;;;;;0.40;0.40;;;20.30;78.70;;;;;;5106319;28;20237;-64
2022/12/05 11:18:27;;;;;;;0.70;0.70;;;20.30;79.10;;;;;;5099805;28;20573;-64
2022/12/05 11:21:18;;;;;;;0.40;0.40;;;20.40;79.10;;;;;;5097589;28;20325;-64
2022/12/05 11:24:21;;;;;;;0.50;0.50;;;20.50;79.00;;;;;;5112746;28;20252;-64
2022/12/05 11:27:27;;;;;;;0.43;0.43;;;20.60;78.50;;;;;;5098310;28;20200;-64
2022/12/05 11:30:19;;;;;;;0.40;0.40;;;20.50;78.80;;;;;;5103969;28;20762;-64
2022/12/05 11:33:20;;;;;;;0.40;0.40;;;20.50;78.90;;;;;;5097743;28;20261;-64
2022/12/05 11:36:14;;;;;;;0.75;0.75;;;20.50;78.90;;;;;;5093690;28;20272;-64
2022/12/05 11:39:02;;;;;;;0.40;0.40;;;20.50;78.90;;;;;;5094130;28;20329;-64
2022/12/05 11:42:07;;;;;;;2.15;2.05;;;20.50;78.90;;;;;;5095664;28;20254;-64
2022/12/05 11:45:16;;;;;;;6.43;6.03;;;20.50;78.90;;;;;;5095782;28;20295;-64
2022/12/05 11:48:29;;;;;;;0.40;0.40;;;20.50;78.80;;;;;;5094343;28;20307;-64
2022/12/05 11:51:31;;;;;;;0.40;0.40;;;20.50;78.90;;;;;;5094063;28;20652;-64
2022/12/05 11:54:42;;;;;;;0.40;0.40;;;20.50;79.00;;;;;;5094869;28;20377;-64
2022/12/05 11:58:08;;;;;;;0.70;0.70;;;20.60;78.90;;;;;;5094476;28;20219;-64
2022/12/05 12:01:07;;;;;;;0.40;0.40;;;20.60;78.70;;;;;;5106136;28;20754;-64
2022/12/05 12:04:19;;;;;;;0.40;0.40;;;20.60;78.60;;;;;;5114100;28;20226;-64
2022/12/05 12:07:24;;;;;;;0.40;0.40;;;20.60;77.90;;;;;;5093839;28;20236;-64
2022/12/05 12:10:22;;;;;;;0.40;0.40;;;20.70;78.60;;;;;;5097204;28;20286;-64
2022/12/05 12:13:25;;;;;;;0.50;0.50;;;20.70;78.40;;;;;;5104401;28;20706;-63
2022/12/05 12:16:19;;;;;;;0.50;0.50;;;20.70;78.30;;;;;;5096803;28;20196;-64
2022/12/05 12:19:24;;;;;;;0.73;0.73;;;20.80;78.40;;;;;;5094397;28;20215;-64
2022/12/05 12:22:43;;;;;;;0.40;0.40;;;20.80;78.40;;;;;;5111861;28;20195;-64
2022/12/05 12:25:42;;;;;;;0.40;0.40;;;20.70;78.20;;;;;;5107653;28;20274;-64
2022/12/05 12:28:41;;;;;;;1.23;1.23;;;20.80;78.20;;;;;;5105936;28;20276;-64
2022/12/05 12:31:45;;;;;;;1.60;1.60;;;20.80;78.00;;;;;;5091188;28;20271;-64
2022/12/05 12:35:15;;;;;;;0.63;0.63;;;20.90;77.90;;;;;;5092574;28;20195;-64
2022/12/05 12:38:35;;;;;;;0.90;0.90;;;20.90;77.80;;;;;;5010995;28;20401;-64
2022/12/05 12:41:40;;;;;;;1.75;1.20;;;20.90;77.90;;;;;;5092702;28;20333;-64
2022/12/05 12:44:53;;;;;;;0.50;0.50;;;20.90;77.70;;;;;;5106720;28;20236;-65
2022/12/05 12:47:54;;;;;;;0.55;0.55;;;21.00;77.70;;;;;;5105998;28;20242;-65
2022/12/05 12:50:45;;;;;;;0.40;0.40;;;21.10;77.70;;;;;;5102738;27;20236;-64
2022/12/05 12:53:49;;;;;;;0.88;0.88;;;21.00;77.50;;;;;;5105559;28;20233;-64
2022/12/05 12:56:47;;;;;;;2.28;2.17;;;21.00;77.50;;;;;;5111229;28;20210;-64
2022/12/05 12:59:49;;;;;;;0.40;0.40;;;21.00;77.50;;;;;;5113131;28;20199;-64
2022/12/05 13:02:44;;;;;;;0.40;0.40;;;21.10;77.50;;;;;;5106003;28;20618;-64
2022/12/05 13:05:37;;;;;;;0.40;0.40;;;21.10;77.40;;;;;;5092915;28;20817;-65
2022/12/05 13:08:31;;;;;;;0.40;0.40;;;21.10;77.40;;;;;;5100875;28;20306;-65
2022/12/05 13:11:21;;;;;;;2.15;2.15;;;21.10;77.70;;;;;;5104275;28;20191;-66
2022/12/05 13:14:13;;;;;;;0.40;0.40;;;21.10;77.60;;;;;;5103178;28;20282;-65
2022/12/05 13:17:04;;;;;;;2.15;2.05;;;21.60;84.40;;;;;;5101564;28;20200;-64
2022/12/05 13:19:53;;;;;;;0.40;0.40;;;21.10;77.70;;;;;;5101920;28;20203;-64
2022/12/05 13:22:42;;;;;;;0.80;0.80;;;21.10;77.60;;;;;;5103452;28;20320;-66
2022/12/05 13:25:37;;;;;;;1.05;1.05;;;21.10;77.50;;;;;;5102660;28;20199;-65
2022/12/05 13:28:29;;;;;;;0.40;0.40;;;21.10;77.60;;;;;;5103783;28;20216;-66
2022/12/05 13:31:18;;;;;;;0.40;0.40;;;21.00;77.50;;;;;;5104143;27;20196;-63
2022/12/05 13:34:26;;;;;;;0.40;0.40;;;21.00;77.60;;;;;;5104732;28;20217;-63
2022/12/05 13:43:42;;;;;;;0.40;0.40;;;21.10;77.30;;;;;;5101385;28;20203;-62
2022/12/05 13:46:42;;;;;;;0.40;0.40;;;21.10;77.30;;;;;;5102969;28;20283;-63
2022/12/05 13:49:36;;;;;;;0.40;0.40;;;21.10;77.20;;;;;;5101576;28;20198;-64
2022/12/05 13:52:29;;;;;;;0.40;0.40;;;21.10;77.20;;;;;;5092814;27;20631;-64
2022/12/05 13:55:24;;;;;;;0.40;0.40;;;21.20;77.30;;;;;;5092384;28;20802;-61
2022/12/05 13:58:50;;;;;;;0.43;0.43;;;21.30;77.30;;;;;;5091970;28;20301;-62
2022/12/05 14:01:45;;;;;;;0.60;0.60;;;21.30;77.00;;;;;;5091692;28;20249;-61
2022/12/05 14:04:49;;;;;;;0.40;0.40;;;21.40;77.00;;;;;;5092704;28;20196;-61
2022/12/05 14:07:40;;;;;;;1.90;1.80;;;21.40;76.80;;;;;;5092770;28;20234;-61
2022/12/05 14:11:02;;;;;;;2.55;2.45;;;21.40;76.70;;;;;;5095987;28;20656;-62
2022/12/05 14:13:52;;;;;;;5.97;4.40;;;21.40;77.00;;;;;;5102684;28;20290;-61
2022/12/05 14:16:44;;;;;;;0.40;0.40;;;21.30;76.90;;;;;;5103772;28;20191;-64
2022/12/05 14:20:10;;;;;;;0.40;0.40;;;21.40;77.00;;;;;;5101217;28;20192;-63
2022/12/05 14:23:11;;;;;;;0.40;0.40;;;21.40;76.90;;;;;;5101801;28;20222;-63
2022/12/05 14:26:14;;;;;;;0.40;0.40;;;21.50;76.90;;;;;;5102705;28;20380;-64
2022/12/05 14:29:17;;;;;;;1.63;1.52;;;21.50;76.80;;;;;;5100431;28;20257;-63
2022/12/05 14:32:16;;;;;;;2.75;2.65;;;21.50;76.70;;;;;;5102300;28;20196;-63
2022/12/05 14:35:11;;;;;;;0.70;0.70;;;21.50;76.70;;;;;;5102104;28;20188;-63
2022/12/05 14:38:02;;;;;;;0.40;0.40;;;21.60;76.60;;;;;;5103589;28;20288;-64
2022/12/05 14:40:51;;;;;;;0.70;0.70;;;21.60;76.60;;;;;;5100983;28;20314;-63
2022/12/05 14:43:41;;;;;;;0.40;0.40;;;21.60;76.50;;;;;;5104059;28;20269;-61
2022/12/05 14:46:32;;;;;;;0.40;0.40;;;21.60;76.30;;;;;;5105437;28;20196;-62
2022/12/05 14:50:00;;;;;;;0.40;0.40;;;21.70;76.40;;;;;;5108205;28;20203;-61
2022/12/05 14:53:24;;;;;;;0.40;0.40;;;21.70;76.20;;;;;;5107541;27;20216;-62
2022/12/05 14:56:17;;;;;;;0.63;0.63;;;21.60;76.20;;;;;;5103929;28;20204;-62
2022/12/05 14:59:19;;;;;;;0.40;0.40;;;21.60;76.20;;;;;;5104917;28;20267;-63
2022/12/05 15:02:19;;;;;;;0.60;0.60;;;21.70;76.20;;;;;;5105093;28;20196;-63
2022/12/05 15:05:21;;;;;;;0.50;0.50;;;21.70;76.20;;;;;;5109343;28;20347;-62
2022/12/05 15:08:14;;;;;;;0.40;0.40;;;21.70;76.20;;;;;;5094282;28;20350;-65
2022/12/05 15:11:03;;;;;;;0.73;0.73;;;21.70;76.20;;;;;;5101867;28;20608;-64
2022/12/05 15:13:52;;;;;;;0.40;0.40;;;21.70;76.00;;;;;;5104807;28;20303;-64